Time;durP1;ratioP1;P1;durP2;ratioP2;P2;SDS_P1;SDS_P2;PMS_P1;PMS_P2;Temp;Humidity;BMP_temperature;BMP_pressure;BME280_temperature;BME280_humidity;BME280_pressure;Samples;Min_cycle;Max_cycle;Signal;HPM_P1;HPM_P2
2022/10/12 00:01:10;;;;;;;2.95;1.27;;;21.70;41.90;;;;;;5049122;28;20021;-48
2022/10/12 00:03:37;;;;;;;3.85;1.25;;;21.70;41.90;;;;;;5049711;28;20028;-51
2022/10/12 00:06:08;;;;;;;3.17;1.40;;;21.70;41.90;;;;;;5050067;28;20433;-46
2022/10/12 00:08:35;;;;;;;3.92;1.33;;;21.70;41.90;;;;;;5044837;28;20079;-47
2022/10/12 00:11:01;;;;;;;2.95;1.23;;;21.70;41.90;;;;;;5046954;28;20049;-49
2022/10/12 00:13:27;;;;;;;3.50;1.20;;;21.70;41.80;;;;;;5046444;28;20325;-47
2022/10/12 00:15:53;;;;;;;3.78;1.60;;;21.60;41.80;;;;;;5048362;28;20472;-51
2022/10/12 00:18:19;;;;;;;2.70;1.00;;;21.60;41.80;;;;;;5048456;28;20061;-52
2022/10/12 00:20:45;;;;;;;2.80;1.13;;;21.60;41.80;;;;;;5047531;28;20041;-52
2022/10/12 00:23:11;;;;;;;3.60;1.30;;;21.60;41.90;;;;;;5048360;28;20029;-46
2022/10/12 00:25:38;;;;;;;2.80;1.17;;;21.60;41.90;;;;;;5050094;28;20040;-47
2022/10/12 00:28:05;;;;;;;3.28;1.42;;;21.60;41.80;;;;;;5050569;28;20380;-51
2022/10/12 00:30:31;;;;;;;3.45;1.33;;;21.60;41.80;;;;;;5050374;28;20025;-50
2022/10/12 00:32:57;;;;;;;2.60;1.10;;;21.60;41.90;;;;;;5048532;28;20077;-50
2022/10/12 00:35:23;;;;;;;2.58;1.20;;;21.60;41.80;;;;;;5053616;28;20057;-47
2022/10/12 00:37:55;;;;;;;3.75;1.20;;;21.60;41.80;;;;;;5053541;28;20041;-50
2022/10/12 00:40:22;;;;;;;2.47;1.23;;;21.60;41.90;;;;;;5052823;28;20036;-52
2022/10/12 00:42:48;;;;;;;2.10;1.20;;;21.60;41.90;;;;;;5052624;28;20016;-49
2022/10/12 00:45:15;;;;;;;3.90;1.20;;;21.60;41.90;;;;;;5052609;28;20426;-46
2022/10/12 00:47:48;;;;;;;3.20;1.20;;;21.60;41.80;;;;;;5051399;28;20029;-50
2022/10/12 00:50:16;;;;;;;3.90;1.60;;;21.60;41.90;;;;;;5052011;28;20025;-48
2022/10/12 00:53:08;;;;;;;4.25;1.45;;;21.60;41.90;;;;;;5051266;28;20073;-50
2022/10/12 00:55:38;;;;;;;3.20;1.30;;;21.60;41.90;;;;;;5051375;28;20352;-51
2022/10/12 00:58:07;;;;;;;2.75;1.27;;;21.60;42.50;;;;;;5052981;28;20344;-47
2022/10/12 01:00:34;;;;;;;3.08;1.40;;;21.50;41.80;;;;;;5051415;28;20073;-51
2022/10/12 01:03:00;;;;;;;2.65;1.10;;;21.50;41.80;;;;;;5052581;28;20029;-46
2022/10/12 01:05:27;;;;;;;2.15;1.10;;;21.50;41.80;;;;;;5051657;28;20040;-48
2022/10/12 01:07:53;;;;;;;2.78;1.35;;;21.50;41.80;;;;;;5052273;28;20037;-49
2022/10/12 01:10:18;;;;;;;3.30;1.25;;;21.50;41.80;;;;;;5050265;28;20126;-47
2022/10/12 01:12:47;;;;;;;2.00;0.90;;;21.50;41.90;;;;;;5051296;28;20452;-49
2022/10/12 01:15:13;;;;;;;3.15;1.17;;;21.50;42.60;;;;;;5051974;28;20348;-47
2022/10/12 01:18:09;;;;;;;3.55;1.20;;;21.50;42.00;;;;;;5052672;28;20025;-46
2022/10/12 01:20:50;;;;;;;3.25;1.40;;;21.50;42.00;;;;;;5050814;28;20095;-47
2022/10/12 01:23:16;;;;;;;2.65;0.98;;;21.50;42.00;;;;;;5050042;28;20112;-45
2022/10/12 01:26:13;;;;;;;2.95;1.17;;;21.50;42.00;;;;;;5052693;28;20120;-49
2022/10/12 01:28:51;;;;;;;2.03;0.88;;;21.50;42.00;;;;;;5051427;28;20025;-46
2022/10/12 01:31:43;;;;;;;2.83;1.00;;;21.50;42.00;;;;;;5051144;28;20444;-45
2022/10/12 01:34:17;;;;;;;2.53;1.20;;;21.40;42.00;;;;;;5051406;28;20452;-46
2022/10/12 01:36:47;;;;;;;2.78;0.93;;;21.40;42.00;;;;;;5052740;28;20025;-45
2022/10/12 01:39:19;;;;;;;2.50;0.93;;;21.40;42.00;;;;;;5052190;28;20025;-46
2022/10/12 01:41:59;;;;;;;2.85;1.00;;;21.40;42.00;;;;;;5051858;28;20120;-49
2022/10/12 01:44:25;;;;;;;3.25;0.98;;;21.40;42.20;;;;;;5050519;28;20111;-44
2022/10/12 01:46:54;;;;;;;3.42;1.40;;;21.40;42.00;;;;;;5051924;28;20474;-50
2022/10/12 01:49:32;;;;;;;3.10;1.40;;;21.40;41.90;;;;;;5050600;28;20403;-48
2022/10/12 01:52:11;;;;;;;4.45;1.13;;;21.40;41.90;;;;;;5051965;28;20123;-48
2022/10/12 01:55:07;;;;;;;2.92;1.20;;;21.40;41.90;;;;;;5051550;28;20021;-48
2022/10/12 01:57:39;;;;;;;3.55;1.25;;;21.40;41.90;;;;;;5038069;28;20045;-48
2022/10/12 02:00:11;;;;;;;2.78;1.17;;;21.40;41.90;;;;;;5048961;28;20028;-48
2022/10/12 02:03:14;;;;;;;3.47;1.23;;;21.40;41.90;;;;;;5050183;28;20046;-46
2022/10/12 02:05:46;;;;;;;2.88;1.25;;;21.40;42.00;;;;;;5051388;28;20056;-45
2022/10/12 02:08:22;;;;;;;3.10;1.00;;;21.40;42.00;;;;;;5051407;28;20037;-47
2022/10/12 02:11:01;;;;;;;3.33;1.23;;;21.30;41.90;;;;;;5047348;28;20041;-46
2022/10/12 02:13:32;;;;;;;2.65;0.98;;;21.40;42.00;;;;;;5052091;28;20448;-46
2022/10/12 02:16:00;;;;;;;4.90;1.50;;;21.30;41.90;;;;;;5052109;28;20114;-47
2022/10/12 02:18:28;;;;;;;2.45;0.90;;;21.30;41.90;;;;;;5049299;28;20040;-48
2022/10/12 02:20:56;;;;;;;3.05;0.90;;;21.30;41.90;;;;;;5048185;28;20021;-47
2022/10/12 02:23:24;;;;;;;2.63;1.13;;;21.30;42.50;;;;;;5050711;28;20329;-46
2022/10/12 02:25:52;;;;;;;3.03;1.10;;;21.30;41.90;;;;;;5051681;28;20029;-47
2022/10/12 02:28:22;;;;;;;2.72;1.00;;;21.30;41.90;;;;;;5051230;28;20087;-47
2022/10/12 02:30:58;;;;;;;2.28;1.05;;;21.30;41.90;;;;;;5051418;28;20060;-46
2022/10/12 02:34:01;;;;;;;2.35;0.90;;;21.30;41.90;;;;;;5048970;28;20037;-46
2022/10/12 02:37:18;;;;;;;3.30;1.30;;;21.30;41.90;;;;;;5049696;28;20502;-47
2022/10/12 02:39:47;;;;;;;2.97;0.95;;;21.30;42.00;;;;;;5015900;28;20421;-49
2022/10/12 02:42:18;;;;;;;3.05;1.10;;;21.30;42.10;;;;;;5049813;28;20037;-47
2022/10/12 02:44:46;;;;;;;2.22;0.82;;;21.30;42.00;;;;;;5048976;28;20452;-48
2022/10/12 02:47:15;;;;;;;3.22;1.10;;;21.30;42.00;;;;;;5051732;28;20328;-49
2022/10/12 02:49:42;;;;;;;2.25;0.85;;;21.30;42.10;;;;;;5049389;28;20059;-48
2022/10/12 02:52:08;;;;;;;2.83;1.27;;;21.30;42.00;;;;;;5050759;28;20044;-50
2022/10/12 02:54:35;;;;;;;2.47;1.10;;;21.30;42.00;;;;;;5049669;28;20102;-50
2022/10/12 02:57:01;;;;;;;2.97;1.00;;;21.30;42.10;;;;;;5051112;28;20025;-45
2022/10/12 02:59:27;;;;;;;1.65;0.80;;;21.20;42.00;;;;;;5048893;28;20322;-48
2022/10/12 03:01:53;;;;;;;2.53;1.33;;;21.30;42.00;;;;;;5050742;28;20137;-48
2022/10/12 03:04:19;;;;;;;3.28;1.00;;;21.30;42.00;;;;;;5049539;28;20163;-48
2022/10/12 03:06:45;;;;;;;4.45;1.17;;;21.30;42.00;;;;;;5049299;28;20119;-51
2022/10/12 03:09:10;;;;;;;2.03;0.98;;;21.30;42.00;;;;;;5046904;28;20045;-47
2022/10/12 03:11:36;;;;;;;2.72;1.10;;;21.30;42.00;;;;;;5048304;28;20033;-46
2022/10/12 03:14:03;;;;;;;3.40;1.10;;;21.20;41.90;;;;;;5050457;28;20029;-47
2022/10/12 03:16:29;;;;;;;2.88;0.98;;;21.20;41.90;;;;;;5050790;28;20029;-47
2022/10/12 03:18:54;;;;;;;3.05;1.23;;;21.20;42.00;;;;;;5048911;28;20093;-47
2022/10/12 03:21:20;;;;;;;2.60;1.00;;;21.20;41.90;;;;;;5048044;28;20028;-47
2022/10/12 03:23:46;;;;;;;2.58;0.93;;;21.20;41.90;;;;;;5050894;28;20025;-51
2022/10/12 03:26:12;;;;;;;2.88;1.00;;;21.20;41.90;;;;;;5049722;28;20035;-50
2022/10/12 03:28:37;;;;;;;3.60;1.38;;;21.20;42.60;;;;;;5049072;28;20031;-46
2022/10/12 03:31:03;;;;;;;2.63;0.93;;;21.20;41.90;;;;;;5049613;28;20367;-47
2022/10/12 03:33:29;;;;;;;2.00;0.93;;;21.20;42.00;;;;;;5050284;28;20028;-49
2022/10/12 03:35:55;;;;;;;2.15;0.98;;;21.20;41.90;;;;;;5050001;28;20053;-50
2022/10/12 03:38:21;;;;;;;3.95;1.08;;;21.20;41.90;;;;;;5049494;28;20021;-49
2022/10/12 03:40:47;;;;;;;3.80;1.10;;;21.20;41.80;;;;;;5049269;28;20037;-49
2022/10/12 03:43:12;;;;;;;2.00;0.77;;;21.20;41.80;;;;;;5049226;28;20462;-47
2022/10/12 03:45:38;;;;;;;2.22;1.10;;;21.20;42.40;;;;;;5048850;28;20111;-48
2022/10/12 03:48:05;;;;;;;3.33;1.35;;;21.20;41.80;;;;;;5050053;28;20020;-51
2022/10/12 03:50:33;;;;;;;3.30;1.25;;;21.20;41.80;;;;;;5048118;28;20040;-49
2022/10/12 03:53:00;;;;;;;1.67;0.90;;;21.20;41.80;;;;;;5049730;28;20191;-47
2022/10/12 03:55:26;;;;;;;2.50;1.05;;;21.20;41.80;;;;;;5048901;28;20025;-49
2022/10/12 03:57:52;;;;;;;2.70;1.17;;;21.20;41.80;;;;;;5048274;28;20036;-51
2022/10/12 04:00:18;;;;;;;4.53;1.48;;;21.20;41.80;;;;;;5049689;28;20037;-49
2022/10/12 04:02:44;;;;;;;3.42;1.10;;;21.10;41.80;;;;;;5050863;28;20037;-47
2022/10/12 04:05:09;;;;;;;3.55;1.10;;;21.20;41.80;;;;;;5053480;28;20124;-49
2022/10/12 04:07:35;;;;;;;2.50;1.10;;;21.10;41.70;;;;;;5054519;28;20417;-48
2022/10/12 04:10:01;;;;;;;2.38;0.90;;;21.20;41.80;;;;;;5051747;28;20127;-46
2022/10/12 04:12:27;;;;;;;2.47;1.13;;;21.10;41.70;;;;;;5052964;28;20362;-48
2022/10/12 04:14:53;;;;;;;3.20;1.05;;;21.10;41.70;;;;;;5052734;28;20096;-51
2022/10/12 04:17:18;;;;;;;3.17;1.10;;;21.10;41.70;;;;;;5051434;28;20407;-48
2022/10/12 04:19:44;;;;;;;3.47;1.35;;;21.10;42.30;;;;;;5051926;28;20109;-50
2022/10/12 04:22:10;;;;;;;2.03;1.10;;;21.10;41.70;;;;;;5050727;28;20356;-49
2022/10/12 04:24:36;;;;;;;3.20;1.17;;;21.10;41.70;;;;;;5053095;28;20120;-47
2022/10/12 04:27:02;;;;;;;3.47;1.25;;;21.10;41.70;;;;;;5053221;28;20034;-49
2022/10/12 04:29:28;;;;;;;3.20;1.20;;;21.10;41.70;;;;;;5053906;28;20098;-47
2022/10/12 04:31:53;;;;;;;2.33;1.13;;;21.10;41.70;;;;;;5050991;28;20448;-50
2022/10/12 04:34:19;;;;;;;3.03;1.30;;;21.10;41.70;;;;;;5052436;28;20428;-49
2022/10/12 04:36:45;;;;;;;2.60;1.38;;;21.10;41.70;;;;;;5053411;28;20025;-46
2022/10/12 04:39:12;;;;;;;4.00;1.45;;;21.10;41.70;;;;;;5052362;28;20587;-50
2022/10/12 04:41:38;;;;;;;2.42;1.08;;;21.10;41.70;;;;;;5050920;28;20036;-52
2022/10/12 04:44:05;;;;;;;4.70;1.48;;;21.10;41.70;;;;;;5052611;28;20044;-46
2022/10/12 04:46:31;;;;;;;3.13;1.45;;;21.10;41.70;;;;;;5053524;28;20029;-48
2022/10/12 04:48:57;;;;;;;3.60;1.52;;;21.10;42.30;;;;;;5052701;28;20040;-51
2022/10/12 04:51:24;;;;;;;2.97;1.30;;;21.10;41.70;;;;;;5050991;28;20036;-46
2022/10/12 04:53:50;;;;;;;2.78;1.20;;;21.10;41.70;;;;;;5051394;28;20448;-49
2022/10/12 04:56:16;;;;;;;5.40;1.40;;;21.10;41.70;;;;;;5052707;28;20029;-53
2022/10/12 04:58:42;;;;;;;3.35;1.40;;;21.10;41.70;;;;;;5052572;28;20339;-51
2022/10/12 05:01:08;;;;;;;2.75;1.48;;;21.10;41.70;;;;;;5049600;28;20025;-50
2022/10/12 05:03:34;;;;;;;4.60;1.50;;;21.00;41.60;;;;;;5051162;28;20036;-47
2022/10/12 05:05:59;;;;;;;4.07;1.40;;;21.00;41.60;;;;;;5052162;28;20033;-52
2022/10/12 05:08:25;;;;;;;3.08;1.40;;;21.10;42.30;;;;;;5051361;28;20095;-46
2022/10/12 05:10:51;;;;;;;3.30;1.25;;;21.00;41.50;;;;;;5049775;28;20462;-48
2022/10/12 05:13:17;;;;;;;2.80;1.13;;;21.00;41.50;;;;;;5052959;28;20040;-48
2022/10/12 05:15:43;;;;;;;2.38;1.25;;;21.10;41.60;;;;;;5052900;28;20029;-48
2022/10/12 05:18:10;;;;;;;2.03;1.25;;;21.00;41.50;;;;;;5051822;28;20551;-46
2022/10/12 05:20:36;;;;;;;3.28;1.40;;;21.00;41.50;;;;;;5052796;28;20455;-46
2022/10/12 05:23:03;;;;;;;4.57;1.35;;;21.00;41.50;;;;;;5051799;28;20041;-49
2022/10/12 05:25:28;;;;;;;3.65;1.60;;;21.00;41.40;;;;;;5047849;28;20040;-47
2022/10/12 05:27:55;;;;;;;3.78;1.83;;;21.00;41.40;;;;;;5051185;28;20021;-48
2022/10/12 05:30:21;;;;;;;2.60;1.30;;;21.00;41.40;;;;;;5052943;28;20102;-49
2022/10/12 05:32:47;;;;;;;3.67;1.50;;;21.00;41.40;;;;;;5052384;28;20065;-50
2022/10/12 05:35:13;;;;;;;4.28;1.25;;;21.00;41.40;;;;;;5048123;28;20128;-48
2022/10/12 05:37:39;;;;;;;4.35;1.30;;;21.00;41.40;;;;;;5051906;28;20115;-49
2022/10/12 05:40:06;;;;;;;2.65;1.10;;;21.00;41.40;;;;;;5051627;28;20021;-48
2022/10/12 05:42:33;;;;;;;3.40;1.73;;;21.00;41.40;;;;;;5052520;28;20029;-47
2022/10/12 05:44:59;;;;;;;2.80;1.50;;;21.00;41.40;;;;;;5051871;28;20086;-51
2022/10/12 05:47:25;;;;;;;2.50;1.60;;;21.00;41.40;;;;;;5048937;28;20025;-51
2022/10/12 05:49:51;;;;;;;3.33;1.48;;;21.00;41.40;;;;;;5052188;28;20123;-50
2022/10/12 05:52:17;;;;;;;3.92;1.73;;;21.00;41.40;;;;;;5050844;28;20475;-49
2022/10/12 05:54:43;;;;;;;3.28;1.60;;;21.00;41.40;;;;;;5051879;28;20032;-48
2022/10/12 05:57:08;;;;;;;3.22;1.50;;;21.00;41.40;;;;;;5050731;28;20029;-46
2022/10/12 05:59:34;;;;;;;3.15;1.70;;;20.90;41.40;;;;;;5051957;28;20425;-47
2022/10/12 06:02:00;;;;;;;3.33;1.48;;;20.90;41.40;;;;;;5048759;28;20111;-47
2022/10/12 06:04:26;;;;;;;3.90;1.50;;;21.00;41.50;;;;;;5050289;28;20352;-52
2022/10/12 06:06:51;;;;;;;3.30;1.30;;;20.90;41.50;;;;;;5052379;28;20455;-51
2022/10/12 06:09:18;;;;;;;3.35;1.73;;;20.90;41.40;;;;;;5049311;28;20136;-48
2022/10/12 06:11:43;;;;;;;2.80;1.20;;;20.90;41.40;;;;;;5050570;28;20115;-52
2022/10/12 06:14:09;;;;;;;3.42;1.48;;;20.90;41.40;;;;;;5051182;28;20520;-47
2022/10/12 06:16:35;;;;;;;3.83;1.55;;;20.90;41.40;;;;;;5052266;28;20079;-49
2022/10/12 06:19:01;;;;;;;3.63;1.70;;;20.90;41.50;;;;;;5049873;28;21578;-51
2022/10/12 06:21:26;;;;;;;3.17;1.50;;;20.90;41.50;;;;;;5050567;28;20021;-53
2022/10/12 06:23:52;;;;;;;3.03;1.40;;;20.90;41.50;;;;;;5048566;28;20025;-51
2022/10/12 06:26:18;;;;;;;3.85;1.60;;;20.90;41.60;;;;;;5045840;28;20029;-50
2022/10/12 06:28:44;;;;;;;5.70;1.80;;;20.90;41.60;;;;;;5051378;28;20036;-50
2022/10/12 06:31:10;;;;;;;4.68;1.48;;;20.90;41.60;;;;;;5051074;28;20041;-49
2022/10/12 06:33:35;;;;;;;4.93;1.90;;;20.90;41.60;;;;;;5050190;28;20033;-48
2022/10/12 06:36:02;;;;;;;5.22;1.98;;;20.90;41.80;;;;;;5048483;28;20090;-49
2022/10/12 06:38:27;;;;;;;4.15;1.90;;;20.90;41.80;;;;;;5049376;28;20352;-49
2022/10/12 06:40:53;;;;;;;4.28;1.77;;;20.90;41.90;;;;;;5047289;28;20021;-52
2022/10/12 06:43:21;;;;;;;4.22;1.80;;;20.90;41.90;;;;;;5048437;28;20051;-53
2022/10/12 06:45:48;;;;;;;4.63;1.90;;;20.90;41.80;;;;;;5047878;28;20029;-48
2022/10/12 06:48:14;;;;;;;5.25;2.08;;;20.90;41.80;;;;;;5050365;28;20398;-50
2022/10/12 06:50:40;;;;;;;3.92;1.90;;;20.90;41.80;;;;;;5050318;28;20134;-50
2022/10/12 06:53:05;;;;;;;5.43;2.00;;;20.90;41.80;;;;;;5046982;28;20064;-49
2022/10/12 06:55:31;;;;;;;5.15;2.10;;;20.90;41.80;;;;;;5051100;28;20423;-46
2022/10/12 06:57:57;;;;;;;4.47;1.98;;;20.90;41.80;;;;;;5046337;28;20021;-50
2022/10/12 07:00:23;;;;;;;3.67;1.77;;;20.90;41.80;;;;;;5050548;28;20444;-45
2022/10/12 07:02:50;;;;;;;5.55;2.00;;;20.90;41.90;;;;;;5055327;28;20037;-50
2022/10/12 07:05:17;;;;;;;3.72;1.88;;;20.90;42.00;;;;;;5055048;28;20033;-46
2022/10/12 07:07:43;;;;;;;5.57;1.75;;;20.90;42.00;;;;;;5054321;28;20025;-51
2022/10/12 07:10:09;;;;;;;7.60;1.75;;;20.90;42.00;;;;;;5047708;28;20456;-49
2022/10/12 07:12:38;;;;;;;4.07;1.80;;;20.90;42.00;;;;;;5050110;28;20061;-51
2022/10/12 07:15:05;;;;;;;6.97;1.95;;;20.90;42.10;;;;;;5048613;28;20464;-53
2022/10/12 07:17:32;;;;;;;6.35;2.25;;;20.90;42.10;;;;;;5052137;28;20048;-49
2022/10/12 07:19:58;;;;;;;4.07;1.92;;;20.90;42.10;;;;;;5048702;28;20036;-51
2022/10/12 07:22:25;;;;;;;5.40;2.30;;;20.90;42.10;;;;;;5052162;28;20441;-52
2022/10/12 07:24:50;;;;;;;5.07;2.35;;;20.90;42.10;;;;;;5054683;28;20452;-52
2022/10/12 07:27:16;;;;;;;5.20;1.67;;;20.90;42.20;;;;;;5053167;28;20061;-53
2022/10/12 07:29:42;;;;;;;7.38;2.72;;;20.90;42.20;;;;;;5050172;28;20448;-52
2022/10/12 07:32:08;;;;;;;3.08;1.90;;;20.90;42.20;;;;;;5055137;28;20083;-53
2022/10/12 07:34:34;;;;;;;4.43;2.00;;;20.90;42.20;;;;;;5054245;28;20037;-51
2022/10/12 07:37:00;;;;;;;5.55;2.05;;;20.90;42.20;;;;;;5055216;28;20044;-53
2022/10/12 07:39:26;;;;;;;3.92;2.10;;;20.90;42.30;;;;;;5050311;28;20030;-53
2022/10/12 07:41:53;;;;;;;6.20;2.25;;;21.00;42.40;;;;;;5052994;28;20436;-49
2022/10/12 07:44:19;;;;;;;4.10;2.47;;;20.90;42.40;;;;;;5052137;28;20074;-50
2022/10/12 07:46:45;;;;;;;3.38;1.50;;;20.90;42.40;;;;;;5050247;28;20053;-46
2022/10/12 07:49:13;;;;;;;5.05;1.88;;;20.90;42.30;;;;;;5049645;28;20033;-51
2022/10/12 07:51:39;;;;;;;4.88;2.00;;;20.90;42.30;;;;;;5048143;28;20037;-49
2022/10/12 07:54:05;;;;;;;4.68;1.88;;;21.00;42.30;;;;;;5053175;28;20024;-47
2022/10/12 07:56:32;;;;;;;4.50;2.17;;;20.90;42.20;;;;;;5051542;28;20036;-48
2022/10/12 07:58:58;;;;;;;5.82;2.10;;;20.90;42.20;;;;;;5053719;28;20029;-50
2022/10/12 08:01:26;;;;;;;4.07;2.30;;;20.90;42.10;;;;;;5049848;28;20036;-48
2022/10/12 08:03:53;;;;;;;5.13;1.92;;;21.00;42.10;;;;;;5046032;28;20048;-47
2022/10/12 08:06:21;;;;;;;6.03;2.13;;;21.00;42.10;;;;;;5052185;28;20116;-51
2022/10/12 08:08:47;;;;;;;4.82;2.10;;;21.00;42.10;;;;;;5051319;28;20082;-51
2022/10/12 08:11:12;;;;;;;3.33;1.90;;;20.90;42.00;;;;;;5053467;28;20038;-48
2022/10/12 08:13:39;;;;;;;5.28;2.15;;;20.90;42.00;;;;;;5054448;28;20167;-49
2022/10/12 08:16:09;;;;;;;5.70;2.53;;;21.00;42.00;;;;;;5046938;28;20082;-46
2022/10/12 08:18:34;;;;;;;5.20;2.05;;;21.00;42.00;;;;;;5051644;28;20044;-50
2022/10/12 08:21:03;;;;;;;4.38;1.80;;;20.90;42.00;;;;;;5053820;28;20421;-51
2022/10/12 08:23:29;;;;;;;3.97;2.15;;;20.90;41.90;;;;;;5058468;28;20037;-48
2022/10/12 08:25:57;;;;;;;4.65;2.05;;;20.90;41.90;;;;;;5051983;28;20025;-47
2022/10/12 08:28:23;;;;;;;5.43;2.33;;;20.90;42.00;;;;;;5052435;28;20029;-50
2022/10/12 08:30:49;;;;;;;4.53;2.22;;;20.90;42.00;;;;;;5048899;28;20025;-53
2022/10/12 08:33:17;;;;;;;4.00;2.20;;;21.00;42.10;;;;;;5049332;28;20415;-47
2022/10/12 08:35:44;;;;;;;5.00;2.25;;;20.90;42.00;;;;;;5047718;28;20037;-46
2022/10/12 08:38:11;;;;;;;4.22;2.13;;;20.90;42.00;;;;;;5054625;28;20124;-51
2022/10/12 08:40:46;;;;;;;5.03;2.42;;;21.00;42.10;;;;;;5051084;28;20032;-47
2022/10/12 08:43:45;;;;;;;4.18;2.13;;;21.00;42.10;;;;;;5045574;28;20503;-49
2022/10/12 08:46:11;;;;;;;6.22;2.50;;;21.00;42.20;;;;;;5035638;28;20104;-47
2022/10/12 08:48:54;;;;;;;5.50;2.25;;;21.00;42.20;;;;;;5054573;28;20464;-49
2022/10/12 08:51:24;;;;;;;5.35;2.97;;;21.00;42.30;;;;;;5055823;28;20090;-48
2022/10/12 08:54:06;;;;;;;4.53;2.13;;;21.00;42.30;;;;;;5047054;28;20051;-47
2022/10/12 08:56:34;;;;;;;4.40;2.30;;;21.00;42.30;;;;;;5045273;28;20499;-48
2022/10/12 08:59:01;;;;;;;5.70;2.22;;;21.00;42.30;;;;;;5038237;28;20044;-47
2022/10/12 09:02:00;;;;;;;5.43;2.33;;;20.90;42.20;;;;;;5047035;28;20032;-46
2022/10/12 09:04:50;;;;;;;4.25;2.42;;;21.00;42.20;;;;;;5051272;28;20025;-50
2022/10/12 09:07:25;;;;;;;5.15;2.72;;;21.00;42.30;;;;;;5039564;28;20539;-52
2022/10/12 09:10:13;;;;;;;7.85;2.90;;;21.00;42.40;;;;;;5050836;28;20364;-48
2022/10/12 09:12:39;;;;;;;7.07;2.50;;;21.00;42.40;;;;;;5056779;28;20066;-49
2022/10/12 09:15:18;;;;;;;6.13;2.45;;;21.00;42.40;;;;;;5057948;28;20032;-49
2022/10/12 09:17:55;;;;;;;6.88;2.58;;;21.00;42.40;;;;;;5057926;28;20064;-46
2022/10/12 09:20:25;;;;;;;7.00;2.60;;;21.00;42.50;;;;;;5047167;28;20051;-52
2022/10/12 09:22:55;;;;;;;5.95;2.80;;;21.00;42.50;;;;;;5036492;28;20484;-53
2022/10/12 09:25:26;;;;;;;4.93;2.58;;;21.00;42.50;;;;;;5037429;28;20037;-52
2022/10/12 09:27:55;;;;;;;5.28;2.50;;;21.00;42.50;;;;;;5038180;28;20394;-49
2022/10/12 09:30:21;;;;;;;5.15;2.90;;;21.00;42.50;;;;;;5037540;28;20501;-49
2022/10/12 09:33:16;;;;;;;5.75;2.75;;;21.00;42.50;;;;;;5055926;28;20115;-50
2022/10/12 09:35:45;;;;;;;5.38;2.60;;;21.00;42.50;;;;;;5038918;28;20131;-49
2022/10/12 09:38:11;;;;;;;5.75;3.08;;;21.00;42.50;;;;;;5057117;28;20488;-47
2022/10/12 09:40:38;;;;;;;4.85;2.38;;;21.00;42.50;;;;;;5042591;28;20192;-52
2022/10/12 09:43:06;;;;;;;6.43;2.83;;;21.00;42.50;;;;;;5057057;28;20427;-53
2022/10/12 09:45:34;;;;;;;7.68;2.50;;;21.00;42.50;;;;;;5056614;28;20526;-51
2022/10/12 09:48:18;;;;;;;5.00;3.17;;;21.00;42.60;;;;;;5055202;28;20021;-49
2022/10/12 09:50:58;;;;;;;3.85;2.70;;;21.00;42.50;;;;;;5052024;28;20448;-51
2022/10/12 09:53:24;;;;;;;5.60;3.13;;;21.00;43.20;;;;;;5043378;28;20052;-52
2022/10/12 09:55:57;;;;;;;5.32;2.95;;;21.00;42.50;;;;;;5037310;28;20420;-49
2022/10/12 09:58:25;;;;;;;5.60;2.70;;;21.00;42.50;;;;;;5037298;28;20396;-48
2022/10/12 10:01:20;;;;;;;5.70;2.78;;;20.90;42.50;;;;;;5041475;28;20040;-51
2022/10/12 10:04:07;;;;;;;5.75;2.80;;;21.00;42.50;;;;;;5051138;28;20072;-49
2022/10/12 10:06:35;;;;;;;6.80;3.20;;;20.90;42.50;;;;;;5056093;28;20039;-51
2022/10/12 10:09:01;;;;;;;5.53;2.70;;;20.90;42.50;;;;;;5047728;28;20029;-47
2022/10/12 10:11:32;;;;;;;4.65;2.55;;;20.90;42.40;;;;;;5036224;28;20041;-52
2022/10/12 10:14:00;;;;;;;10.10;3.15;;;20.90;42.40;;;;;;5036797;28;20048;-47
2022/10/12 10:16:27;;;;;;;5.57;3.00;;;20.90;43.10;;;;;;5045409;28;20117;-52
2022/10/12 10:18:53;;;;;;;5.60;2.67;;;20.90;42.50;;;;;;5052281;28;20070;-46
2022/10/12 10:21:34;;;;;;;5.65;2.53;;;20.90;42.70;;;;;;5055362;28;20060;-49
2022/10/12 10:24:03;;;;;;;7.05;2.88;;;20.90;43.50;;;;;;5048907;28;20456;-52
2022/10/12 10:26:50;;;;;;;7.90;3.03;;;20.90;43.90;;;;;;5050254;28;20436;-47
2022/10/12 10:29:25;;;;;;;6.00;2.70;;;20.90;43.90;;;;;;5041359;28;20037;-48
2022/10/12 10:32:25;;;;;;;6.57;2.60;;;20.90;43.80;;;;;;5036157;28;20039;-47
2022/10/12 10:35:10;;;;;;;5.18;2.75;;;20.90;43.70;;;;;;5047223;28;20037;-50
2022/10/12 10:37:36;;;;;;;5.78;2.60;;;20.90;43.60;;;;;;5044569;28;20021;-51
2022/10/12 10:40:04;;;;;;;7.35;3.08;;;20.90;43.50;;;;;;5039848;28;20099;-50
2022/10/12 10:42:33;;;;;;;5.53;2.72;;;20.90;43.50;;;;;;5048171;28;20056;-48
2022/10/12 10:45:07;;;;;;;4.40;2.47;;;20.90;44.10;;;;;;5055914;28;20028;-48
2022/10/12 10:47:42;;;;;;;4.13;2.28;;;20.90;43.50;;;;;;5041799;28;20441;-51
2022/10/12 10:50:32;;;;;;;6.10;2.70;;;20.90;43.50;;;;;;5052505;28;20468;-45
2022/10/12 10:53:01;;;;;;;6.43;3.17;;;20.90;43.40;;;;;;5036303;28;20048;-52
2022/10/12 10:55:51;;;;;;;4.88;2.60;;;20.90;43.40;;;;;;5048854;28;20403;-51
2022/10/12 10:58:56;;;;;;;4.70;2.40;;;20.90;43.40;;;;;;5055193;28;20121;-52
2022/10/12 11:01:34;;;;;;;5.85;2.90;;;20.90;43.30;;;;;;4995622;28;20097;-51
2022/10/12 11:04:36;;;;;;;4.97;2.53;;;20.90;43.30;;;;;;5047007;28;20064;-51
2022/10/12 11:07:15;;;;;;;5.28;3.03;;;20.90;43.80;;;;;;5049350;28;20032;-46
2022/10/12 11:09:44;;;;;;;6.38;3.17;;;20.90;43.90;;;;;;5051604;28;20057;-48
2022/10/12 11:12:23;;;;;;;7.20;3.70;;;20.90;43.90;;;;;;5052820;28;20128;-51
2022/10/12 11:14:56;;;;;;;6.95;3.28;;;20.90;43.90;;;;;;5053782;28;20033;-52
2022/10/12 11:17:41;;;;;;;5.68;3.08;;;20.90;43.80;;;;;;5049298;28;20021;-48
2022/10/12 11:20:22;;;;;;;6.93;3.58;;;20.90;43.80;;;;;;5044174;28;20029;-46
2022/10/12 11:23:09;;;;;;;6.65;3.42;;;20.90;43.80;;;;;;5040493;28;20092;-47
2022/10/12 11:25:47;;;;;;;7.45;3.67;;;20.90;43.80;;;;;;5041751;28;20025;-51
2022/10/12 11:28:15;;;;;;;5.63;2.85;;;20.90;43.90;;;;;;5043152;28;20034;-47
2022/10/12 11:30:45;;;;;;;6.10;3.47;;;20.90;43.90;;;;;;5048639;28;20115;-56
2022/10/12 11:33:18;;;;;;;6.72;2.88;;;20.90;44.00;;;;;;5047953;28;20090;-53
2022/10/12 11:35:45;;;;;;;6.05;3.22;;;21.00;44.80;;;;;;5046424;28;20068;-45
2022/10/12 11:38:46;;;;;;;6.00;2.58;;;21.00;45.30;;;;;;5046884;28;20029;-48
2022/10/12 11:41:14;;;;;;;5.15;2.55;;;21.10;45.60;;;;;;5042805;28;20356;-50
2022/10/12 11:43:59;;;;;;;5.45;2.55;;;21.10;46.50;;;;;;5045852;28;20029;-52
2022/10/12 11:46:35;;;;;;;8.70;2.78;;;21.10;45.70;;;;;;5042595;28;20039;-49
2022/10/12 11:49:23;;;;;;;6.20;2.67;;;21.20;45.70;;;;;;5042483;28;20131;-53
2022/10/12 11:51:54;;;;;;;6.88;2.92;;;21.20;45.60;;;;;;5043474;28;20037;-49
2022/10/12 11:54:30;;;;;;;6.72;2.80;;;21.30;45.60;;;;;;5043479;28;20098;-55
2022/10/12 11:57:00;;;;;;;5.93;3.08;;;21.40;45.50;;;;;;5044040;28;20025;-52
2022/10/12 11:59:33;;;;;;;4.78;2.63;;;21.50;45.40;;;;;;5041424;28;20047;-55
2022/10/12 12:02:36;;;;;;;7.47;3.10;;;21.60;45.20;;;;;;5045566;28;20029;-60
2022/10/12 12:05:04;;;;;;;4.72;2.13;;;21.70;45.00;;;;;;5041314;28;20028;-50
2022/10/12 12:07:48;;;;;;;8.35;2.40;;;21.80;44.80;;;;;;5047301;28;20037;-54
2022/10/12 12:10:26;;;;;;;3.75;1.92;;;22.00;44.60;;;;;;5040527;28;20084;-54
2022/10/12 12:13:11;;;;;;;6.38;2.70;;;22.10;44.40;;;;;;5042746;28;20056;-54
2022/10/12 12:16:20;;;;;;;9.52;2.78;;;22.30;44.20;;;;;;5048517;28;20036;-48
2022/10/12 12:19:09;;;;;;;7.20;2.70;;;22.40;43.80;;;;;;5023946;28;20044;-47
2022/10/12 12:22:13;;;;;;;5.63;2.13;;;22.50;43.40;;;;;;5054465;28;20035;-51
2022/10/12 12:24:49;;;;;;;5.03;2.30;;;22.50;43.00;;;;;;5044003;28;20106;-47
2022/10/12 12:27:22;;;;;;;7.32;2.83;;;22.60;42.70;;;;;;5046284;28;20037;-50
2022/10/12 12:29:52;;;;;;;3.85;2.30;;;22.60;42.50;;;;;;5046885;28;20032;-49
2022/10/12 12:32:19;;;;;;;5.70;2.78;;;22.60;42.30;;;;;;5045167;28;20513;-47
2022/10/12 12:34:56;;;;;;;6.00;2.60;;;22.50;42.00;;;;;;5045509;28;20029;-47
2022/10/12 12:37:30;;;;;;;4.05;2.25;;;22.50;41.90;;;;;;5044896;28;20067;-49
2022/10/12 12:39:58;;;;;;;5.32;2.53;;;22.50;41.80;;;;;;5042652;28;20417;-49
2022/10/12 12:42:27;;;;;;;4.75;2.30;;;22.50;41.80;;;;;;5056604;28;20464;-47
2022/10/12 12:44:53;;;;;;;3.90;2.40;;;22.40;41.70;;;;;;5058031;28;20104;-51
2022/10/12 12:47:36;;;;;;;3.45;1.88;;;22.40;41.60;;;;;;5057745;28;20037;-49
2022/10/12 12:50:31;;;;;;;5.57;2.33;;;22.40;41.50;;;;;;5055045;28;20033;-47
2022/10/12 12:53:13;;;;;;;5.70;2.10;;;22.30;41.30;;;;;;5056664;28;20056;-45
2022/10/12 12:56:06;;;;;;;4.03;2.05;;;22.30;41.30;;;;;;5056576;28;20029;-51
2022/10/12 12:58:54;;;;;;;4.68;1.90;;;22.20;41.20;;;;;;5056688;28;20029;-47
2022/10/12 13:01:32;;;;;;;5.20;2.20;;;22.20;41.30;;;;;;5058323;28;20525;-45
2022/10/12 13:04:11;;;;;;;4.60;2.35;;;22.10;41.30;;;;;;5058291;28;20640;-45
2022/10/12 13:07:33;;;;;;;5.03;2.13;;;22.10;41.30;;;;;;5058281;28;20040;-46
2022/10/12 13:10:23;;;;;;;5.80;2.30;;;22.00;41.40;;;;;;4982395;28;20369;-49